Aktuell METAR/TAF ESNU/UME

310650Z 21010KT 9999 BKN011 M01/M03 Q1007 RWY 14 ICE 11-25 PCT FCT 0.50=

310530Z 3106/3115 21015G25KT 9999 SCT015 TEMPO 3106/3108 2000 SN SG BKN008 BECMG 3107/3109 23013KT=
Källa: Luftfartsverket (aro.lfv.se)